< < Back
Terminal Aerodrome Forecast


Current Version              Previous Versions:   1  2  3  4  5  6  7  8  9  

Terminal Aerodrome Forecast

696
FTUS42 KFFC 092338
TAFCSG
TAF
KCSG 092338Z 1000/1024 30010KT P6SM VCSH SCT050
      TEMPO 1000/1004 BKN050
     FM101500 30012G22KT P6SM SKC=

Latest METAR

073
SAUS70 KWBC 101200 RRX
MTRCSG
METAR KCSG 101251Z AUTO 30007KT 10SM CLR M04/M09 A3020 RMK AO2 SLP227
T10391094


USA.gov is the U.S. government's official web portal to all federal, state and local government web resources and services.